^^
Meteo Knjazevac Station Historical Data
Daily Summary for January 4, 2021 Units:  English    Metric   Both
Daily Weekly Monthly Yearly Custom
  High: Low: Average:
Temperature: 53.4 °F 45.7 °F 48.7 °F
Dew Point: 47.1 °F 42.9 °F 44.5 °F
Humidity: 91% 79% 86%
Wind Speed: 3mph 0mph 1.1mph
Wind Gust: 6mph - -
Wind- - West
Pressure: 30.14 in 30.12 in -
Precipitation: 0.00 in    
Historical Graphs
 
 
Tabular Data for January 4, 2021
Time Temperature Dew Point Pressure Wind Wind Speed Wind Gust Humidity Rainfall Rate (Hourly) solar Conditions
00:00 53.4 °F 47.1 °F 30.14 in Calm     79% 0.00 in 0 W/m2
00:10 53.1 °F 46.7 °F 30.13 in Calm   1 mph 79% 0.00 in 0 W/m2
00:20 52.7 °F 46.4 °F 30.14 in NW 1 mph 2 mph 79% 0.00 in 0 W/m2
00:30 52.3 °F 46.4 °F 30.14 in Calm   2 mph 80% 0.00 in 0 W/m2
00:40 52 °F 46 °F 30.14 in West 1 mph 2 mph 80% 0.00 in 0 W/m2
00:50 51.6 °F 46 °F 30.14 in NW 1 mph 3 mph 81% 0.00 in 0 W/m2
01:00 51.3 °F 45.6 °F 30.14 in West 1 mph 2 mph 81% 0.00 in 0 W/m2
01:10 50.5 °F 44.9 °F 30.14 in WSW 1 mph 2 mph 81% 0.00 in 0 W/m2
01:20 50.2 °F 45.5 °F 30.14 in WNW 2 mph 5 mph 84% 0.00 in 0 W/m2
01:30 50.2 °F 45.5 °F 30.14 in WNW 1 mph 4 mph 84% 0.00 in 0 W/m2
01:40 50.2 °F 45.5 °F 30.13 in WNW 1 mph 2 mph 84% 0.00 in 0 W/m2
01:50 49.8 °F 45.2 °F 30.13 in Calm   2 mph 84% 0.00 in 0 W/m2
02:00 49.4 °F 44.8 °F 30.14 in Calm   2 mph 84% 0.00 in 0 W/m2
02:10 49.1 °F 44.5 °F 30.13 in Calm   2 mph 84% 0.00 in 0 W/m2
02:20 48.7 °F 44.4 °F 30.13 in NW 1 mph 2 mph 85% 0.00 in 0 W/m2
02:30 48.7 °F 44.4 °F 30.13 in Calm   2 mph 85% 0.00 in 0 W/m2
02:40 48.6 °F 44.3 °F 30.13 in Calm   2 mph 85% 0.00 in 0 W/m2
02:50 48 °F 43.7 °F 30.14 in WSW 2 mph 3 mph 85% 0.00 in 0 W/m2
03:00 47.7 °F 43.7 °F 30.13 in WSW 2 mph 6 mph 86% 0.00 in 0 W/m2
03:10 47.5 °F 44.1 °F 30.13 in West 3 mph 5 mph 88% 0.00 in 0 W/m2
03:20 47.5 °F 44.4 °F 30.13 in West 2 mph 5 mph 89% 0.00 in 0 W/m2
03:30 47.5 °F 44.4 °F 30.13 in WSW 2 mph 3 mph 89% 0.00 in 0 W/m2
03:40 47.1 °F 43.7 °F 30.13 in West 2 mph 3 mph 88% 0.00 in 0 W/m2
03:50 47.1 °F 44 °F 30.13 in NW 1 mph 5 mph 89% 0.00 in 0 W/m2
04:00 47.1 °F 44 °F 30.13 in WNW 1 mph 2 mph 89% 0.00 in 0 W/m2
04:10 47.1 °F 44 °F 30.12 in Calm   2 mph 89% 0.00 in 0 W/m2
04:20 46.8 °F 43.4 °F 30.12 in Calm   2 mph 88% 0.00 in 0 W/m2
04:30 46.6 °F 43.5 °F 30.12 in Calm   2 mph 89% 0.00 in 0 W/m2
04:40 46.4 °F 43.3 °F 30.12 in WNW 1 mph 2 mph 89% 0.00 in 0 W/m2
04:50 46.2 °F 43.1 °F 30.12 in WNW 2 mph 5 mph 89% 0.00 in 0 W/m2
05:00 46.2 °F 43.4 °F 30.12 in West 3 mph 5 mph 90% 0.00 in 0 W/m2
05:10 46 °F 43.6 °F 30.12 in West 2 mph 4 mph 91% 0.00 in 0 W/m2
05:20 46 °F 43.3 °F 30.12 in West 2 mph 5 mph 90% 0.00 in 0 W/m2
05:30 45.9 °F 43.1 °F 30.12 in West 1 mph 4 mph 90% 0.00 in 0 W/m2
05:40 45.7 °F 42.9 °F 30.12 in WNW 1 mph 2 mph 90% 0.00 in 0 W/m2
Knjazevac, Serbia
Compliments of Weather Underground - 2 mb